createdAt,value
2023-04-26T00:00:17.878Z,100.00
2023-04-26T00:03:08.054Z,100.00
2023-04-26T00:05:38.225Z,100.00
2023-04-26T00:08:07.236Z,100.00
2023-04-26T00:10:35.914Z,100.00
2023-04-26T00:13:04.487Z,100.00
2023-04-26T00:15:33.220Z,100.00
2023-04-26T00:18:01.959Z,100.00
2023-04-26T00:20:30.700Z,100.00
2023-04-26T00:22:59.401Z,100.00
2023-04-26T00:25:28.218Z,100.00
2023-04-26T00:27:57.025Z,100.00
2023-04-26T00:30:25.844Z,100.00
2023-04-26T00:32:54.521Z,100.00
2023-04-26T00:35:23.513Z,100.00
2023-04-26T00:37:52.381Z,100.00
2023-04-26T00:40:21.155Z,100.00
2023-04-26T00:42:49.840Z,100.00
2023-04-26T00:45:18.664Z,100.00
2023-04-26T00:47:47.807Z,100.00
2023-04-26T00:50:17.713Z,100.00
2023-04-26T00:52:48.468Z,100.00
2023-04-26T00:55:18.619Z,100.00
2023-04-26T00:57:47.414Z,100.00
2023-04-26T01:00:17.407Z,100.00
2023-04-26T01:02:46.949Z,100.00
2023-04-26T01:05:15.821Z,100.00
2023-04-26T01:07:47.056Z,100.00
2023-04-26T01:10:15.807Z,100.00
2023-04-26T01:12:44.658Z,100.00
2023-04-26T01:15:13.317Z,100.00
2023-04-26T01:17:42.019Z,100.00
2023-04-26T01:20:14.022Z,100.00
2023-04-26T01:22:42.825Z,100.00
2023-04-26T01:25:13.131Z,100.00
2023-04-26T01:27:41.988Z,100.00
2023-04-26T01:30:11.178Z,100.00
2023-04-26T01:32:40.100Z,100.00
2023-04-26T01:35:09.917Z,100.00
2023-04-26T01:37:38.770Z,100.00
2023-04-26T01:40:08.696Z,100.00
2023-04-26T01:42:39.031Z,100.00
2023-04-26T01:45:08.168Z,100.00
2023-04-26T01:47:55.086Z,100.00
2023-04-26T01:50:25.172Z,100.00
2023-04-26T01:52:53.926Z,100.00
2023-04-26T01:55:22.573Z,100.00
2023-04-26T01:57:51.326Z,100.00
2023-04-26T02:00:20.489Z,100.00
2023-04-26T02:02:51.110Z,100.00
2023-04-26T02:05:20.207Z,100.00
2023-04-26T02:07:49.085Z,100.00
2023-04-26T02:10:18.194Z,100.00
2023-04-26T02:12:46.937Z,100.00
2023-04-26T02:15:16.121Z,100.00
2023-04-26T02:17:45.131Z,100.00
2023-04-26T02:20:13.861Z,100.00
2023-04-26T02:22:42.716Z,100.00
2023-04-26T02:25:12.106Z,100.00
2023-04-26T02:27:41.280Z,100.00
2023-04-26T02:30:10.597Z,100.00
2023-04-26T02:32:39.577Z,100.00
2023-04-26T02:35:08.865Z,100.00
2023-04-26T02:37:37.634Z,100.00
2023-04-26T02:40:07.725Z,100.00
2023-04-26T02:42:36.394Z,100.00
2023-04-26T02:45:05.921Z,100.00
2023-04-26T02:47:37.121Z,100.00
2023-04-26T02:50:09.796Z,100.00
2023-04-26T02:52:38.623Z,100.00
2023-04-26T02:55:08.172Z,100.00
2023-04-26T02:57:36.947Z,100.00
2023-04-26T03:00:09.528Z,100.00
2023-04-26T03:02:38.579Z,100.00
2023-04-26T03:05:07.990Z,100.00
2023-04-26T03:07:37.672Z,100.00
2023-04-26T03:10:08.832Z,100.00
2023-04-26T03:12:38.230Z,100.00
2023-04-26T03:15:07.828Z,100.00
2023-04-26T03:17:37.548Z,100.00
2023-04-26T03:20:07.876Z,100.00
2023-04-26T03:22:36.564Z,100.00
2023-04-26T03:25:07.905Z,100.00
2023-04-26T03:27:36.801Z,100.00
2023-04-26T03:30:08.393Z,100.00
2023-04-26T03:32:38.756Z,100.00
2023-04-26T03:35:08.649Z,100.00
2023-04-26T03:37:40.362Z,100.00
2023-04-26T03:40:12.706Z,100.00
2023-04-26T03:42:42.162Z,100.00
2023-04-26T03:45:11.713Z,100.00
2023-04-26T03:47:40.550Z,100.00
2023-04-26T03:50:10.689Z,100.00
2023-04-26T03:52:39.867Z,100.00
2023-04-26T03:55:10.520Z,100.00
2023-04-26T03:57:39.820Z,100.00
2023-04-26T04:00:14.049Z,100.00
2023-04-26T04:02:47.232Z,100.00
2023-04-26T04:05:21.459Z,100.00
2023-04-26T04:07:50.409Z,100.00
2023-04-26T04:10:19.189Z,100.00
2023-04-26T04:12:48.020Z,100.00
2023-04-26T04:15:19.937Z,100.00
2023-04-26T04:17:51.052Z,100.00
2023-04-26T04:20:21.645Z,100.00
2023-04-26T04:22:52.182Z,100.00
2023-04-26T04:25:22.660Z,100.00
2023-04-26T04:27:52.184Z,100.00
2023-04-26T04:30:21.552Z,100.00
2023-04-26T04:32:50.604Z,100.00
2023-04-26T04:35:19.932Z,100.00
2023-04-26T04:37:50.486Z,100.00
2023-04-26T04:40:19.423Z,100.00
2023-04-26T04:42:50.412Z,100.00
2023-04-26T04:45:21.696Z,100.00
2023-04-26T04:47:54.419Z,100.00
2023-04-26T04:50:23.751Z,100.00
2023-04-26T04:52:52.426Z,100.00
2023-04-26T04:55:21.789Z,100.00
2023-04-26T04:57:50.578Z,100.00
2023-04-26T05:00:20.567Z,100.00
2023-04-26T05:02:57.273Z,100.00
2023-04-26T05:05:27.520Z,100.00
2023-04-26T05:07:56.200Z,100.00
2023-04-26T05:10:24.905Z,100.00
2023-04-26T05:12:54.862Z,100.00
2023-04-26T05:15:24.239Z,100.00
2023-04-26T05:17:53.406Z,100.00
2023-04-26T05:20:24.070Z,100.00
2023-04-26T05:22:53.120Z,100.00
2023-04-26T05:25:22.571Z,100.00
2023-04-26T05:27:57.302Z,100.00
2023-04-26T05:31:16.021Z,100.00
2023-04-26T05:34:03.258Z,100.00
2023-04-26T05:36:36.750Z,100.00
2023-04-26T05:39:06.990Z,100.00
2023-04-26T05:41:35.914Z,100.00
2023-04-26T05:44:04.867Z,99.97
2023-04-26T05:46:34.229Z,100.00
2023-04-26T05:49:02.982Z,100.00
2023-04-26T05:51:31.871Z,100.00
2023-04-26T05:54:01.093Z,100.00
2023-04-26T05:56:29.944Z,100.00
2023-04-26T05:58:58.816Z,100.00
2023-04-26T06:01:28.009Z,99.90
2023-04-26T06:03:59.909Z,99.59
2023-04-26T06:06:32.623Z,98.66
2023-04-26T06:09:01.823Z,98.69
2023-04-26T06:11:31.427Z,98.59
2023-04-26T06:14:00.242Z,98.40
2023-04-26T06:16:29.007Z,99.31
2023-04-26T06:18:57.684Z,98.79
2023-04-26T06:21:27.465Z,98.82
2023-04-26T06:23:56.090Z,98.51
2023-04-26T06:26:29.088Z,98.37
2023-04-26T06:28:57.931Z,98.01
2023-04-26T06:31:28.151Z,97.68
2023-04-26T06:33:58.412Z,97.34
2023-04-26T06:36:28.457Z,97.12
2023-04-26T06:38:57.047Z,96.62
2023-04-26T06:41:25.686Z,95.72
2023-04-26T06:43:54.640Z,95.89
2023-04-26T06:46:23.739Z,95.92
2023-04-26T06:48:56.157Z,95.82
2023-04-26T06:51:25.950Z,96.31
2023-04-26T06:53:54.669Z,96.13
2023-04-26T06:56:23.925Z,96.03
2023-04-26T06:59:07.226Z,95.74
2023-04-26T07:01:36.192Z,95.82
2023-04-26T07:04:12.885Z,95.83
2023-04-26T07:06:41.868Z,95.63
2023-04-26T07:09:10.526Z,95.21
2023-04-26T07:11:39.259Z,95.46
2023-04-26T07:14:07.921Z,95.18
2023-04-26T07:16:36.641Z,95.24
2023-04-26T07:19:07.118Z,95.17
2023-04-26T07:21:36.420Z,95.59
2023-04-26T07:24:06.539Z,96.18
2023-04-26T07:26:37.289Z,96.49
2023-04-26T07:29:06.154Z,96.88
2023-04-26T07:31:34.890Z,97.67
2023-04-26T07:34:03.544Z,98.24
2023-04-26T07:36:32.888Z,97.95
2023-04-26T07:39:01.955Z,97.72
2023-04-26T07:41:30.576Z,97.76
2023-04-26T07:43:59.410Z,98.54
2023-04-26T07:46:28.218Z,98.57
2023-04-26T07:48:56.915Z,99.11
2023-04-26T07:51:25.670Z,99.13
2023-04-26T07:53:55.984Z,99.65
2023-04-26T07:56:24.859Z,99.56
2023-04-26T07:58:53.649Z,99.51
2023-04-26T08:01:22.319Z,99.85
2023-04-26T08:03:51.244Z,100.00
2023-04-26T08:06:20.264Z,100.00
2023-04-26T08:08:51.001Z,100.00
2023-04-26T08:11:19.979Z,100.00
2023-04-26T08:13:48.799Z,100.00
2023-04-26T08:16:17.609Z,100.00
2023-04-26T08:18:47.048Z,100.00
2023-04-26T08:21:16.148Z,100.00
2023-04-26T08:23:44.830Z,100.00
2023-04-26T08:26:13.885Z,100.00
2023-04-26T08:28:43.653Z,100.00
2023-04-26T08:31:12.519Z,100.00
2023-04-26T08:33:41.134Z,100.00
2023-04-26T08:36:09.964Z,100.00
2023-04-26T08:38:38.625Z,100.00
2023-04-26T08:41:14.296Z,100.00
2023-04-26T08:43:43.198Z,100.00
2023-04-26T08:46:18.928Z,100.00
2023-04-26T08:49:06.182Z,100.00
2023-04-26T08:51:37.440Z,100.00
2023-04-26T08:54:06.572Z,100.00
2023-04-26T08:56:36.113Z,100.00
2023-04-26T08:59:04.896Z,100.00
2023-04-26T09:01:34.680Z,100.00
2023-04-26T09:04:03.910Z,100.00
2023-04-26T09:06:34.934Z,100.00
2023-04-26T09:09:08.247Z,100.00
2023-04-26T09:11:54.461Z,100.00
2023-04-26T09:14:23.078Z,99.68
2023-04-26T09:16:52.534Z,99.13
2023-04-26T09:19:37.837Z,98.91
2023-04-26T09:22:07.629Z,99.34
2023-04-26T09:24:52.446Z,98.98
2023-04-26T09:27:22.235Z,98.00
2023-04-26T09:30:09.678Z,98.04
2023-04-26T09:32:52.077Z,97.90
2023-04-26T09:35:36.158Z,98.22
2023-04-26T09:38:13.897Z,97.97
2023-04-26T09:40:47.860Z,97.77
2023-04-26T09:43:18.725Z,97.25
2023-04-26T09:45:51.585Z,96.91
2023-04-26T09:48:23.165Z,96.46
2023-04-26T09:50:54.863Z,96.41
2023-04-26T09:53:47.178Z,95.76
2023-04-26T09:56:21.119Z,94.97
2023-04-26T09:59:01.005Z,94.50
2023-04-26T10:01:30.604Z,94.00
2023-04-26T10:04:02.279Z,92.86
2023-04-26T10:06:33.030Z,92.81
2023-04-26T10:09:04.664Z,91.32
2023-04-26T10:11:35.751Z,90.62
2023-04-26T10:14:05.070Z,90.50
2023-04-26T10:16:33.999Z,91.24
2023-04-26T10:19:03.017Z,91.04
2023-04-26T10:21:37.465Z,90.12
2023-04-26T10:24:10.994Z,90.48
2023-04-26T10:26:57.716Z,90.89
2023-04-26T10:29:56.688Z,91.51
2023-04-26T10:32:25.492Z,91.59
2023-04-26T10:35:13.864Z,91.57
2023-04-26T10:38:01.432Z,90.58
2023-04-26T10:40:42.025Z,90.17
2023-04-26T10:43:16.407Z,89.74
2023-04-26T10:45:48.465Z,89.21
2023-04-26T10:48:43.805Z,88.50
2023-04-26T10:51:13.080Z,88.88
2023-04-26T10:53:44.954Z,89.98
2023-04-26T10:56:26.504Z,89.57
2023-04-26T10:59:33.428Z,90.58
2023-04-26T11:02:02.253Z,89.86
2023-04-26T11:04:58.415Z,89.15
2023-04-26T11:07:41.244Z,88.75
2023-04-26T11:10:10.926Z,88.30
2023-04-26T11:12:42.647Z,87.33
2023-04-26T11:15:13.631Z,87.13
2023-04-26T11:17:42.621Z,87.59
2023-04-26T11:20:18.207Z,88.03
2023-04-26T11:22:47.060Z,87.11
2023-04-26T11:25:15.724Z,86.50
2023-04-26T11:27:44.529Z,86.05
2023-04-26T11:30:13.772Z,86.44
2023-04-26T11:32:42.768Z,85.63
2023-04-26T11:35:11.646Z,85.98
2023-04-26T11:37:40.410Z,87.80
2023-04-26T11:40:12.696Z,87.54
2023-04-26T11:42:42.576Z,88.93
2023-04-26T11:45:13.983Z,89.14
2023-04-26T11:47:45.411Z,89.38
2023-04-26T11:50:14.926Z,89.39
2023-04-26T11:52:43.688Z,89.09
2023-04-26T11:55:13.050Z,88.15
2023-04-26T11:57:41.777Z,86.52
2023-04-26T12:00:16.736Z,86.34
2023-04-26T12:02:49.720Z,84.84
2023-04-26T12:05:32.953Z,85.13
2023-04-26T12:08:01.842Z,84.91
2023-04-26T12:10:37.043Z,83.81
2023-04-26T12:13:06.025Z,83.49
2023-04-26T12:15:35.099Z,82.70
2023-04-26T12:18:10.867Z,80.71
2023-04-26T12:20:44.461Z,80.26
2023-04-26T12:23:18.077Z,80.12
2023-04-26T12:26:00.805Z,81.00
2023-04-26T12:28:29.462Z,82.01
2023-04-26T12:30:58.205Z,82.22
2023-04-26T12:33:27.068Z,82.35
2023-04-26T12:35:57.927Z,82.20
2023-04-26T12:38:26.719Z,82.55
2023-04-26T12:40:55.666Z,82.23
2023-04-26T12:43:26.361Z,81.74
2023-04-26T12:45:55.458Z,81.38
2023-04-26T12:48:24.314Z,81.27
2023-04-26T12:50:53.182Z,81.06
2023-04-26T12:53:21.912Z,81.38
2023-04-26T12:55:50.579Z,81.83
2023-04-26T12:58:19.435Z,82.48
2023-04-26T13:00:48.676Z,82.14
2023-04-26T13:03:18.474Z,81.73
2023-04-26T13:05:47.453Z,80.24
2023-04-26T13:08:16.336Z,80.34
2023-04-26T13:10:45.561Z,80.10
2023-04-26T13:13:14.334Z,80.25
2023-04-26T13:15:43.214Z,80.04
2023-04-26T13:18:12.707Z,80.42
2023-04-26T13:20:42.135Z,79.87
2023-04-26T13:23:11.900Z,79.04
2023-04-26T13:25:42.303Z,79.23
2023-04-26T13:28:11.406Z,79.23
2023-04-26T13:30:40.562Z,79.14
2023-04-26T13:33:09.468Z,79.22
2023-04-26T13:35:38.354Z,78.99
2023-04-26T13:38:07.364Z,77.81
2023-04-26T13:40:38.952Z,77.15
2023-04-26T13:43:07.794Z,77.40
2023-04-26T13:45:36.887Z,77.12
2023-04-26T13:48:06.057Z,77.44
2023-04-26T13:50:37.353Z,77.44
2023-04-26T13:53:06.151Z,77.46
2023-04-26T13:55:35.125Z,77.30
2023-04-26T13:58:03.966Z,77.98
2023-04-26T14:00:32.737Z,78.14
2023-04-26T14:03:01.761Z,78.44
2023-04-26T14:05:30.606Z,78.53
2023-04-26T14:07:59.304Z,78.10
2023-04-26T14:10:27.944Z,78.02
2023-04-26T14:12:56.911Z,77.37
2023-04-26T14:15:25.921Z,76.96
2023-04-26T14:17:54.774Z,76.83
2023-04-26T14:20:23.625Z,77.65
2023-04-26T14:22:52.300Z,78.23
2023-04-26T14:25:21.418Z,78.01
2023-04-26T14:27:51.818Z,78.06
2023-04-26T14:30:22.116Z,77.51
2023-04-26T14:32:50.912Z,77.22
2023-04-26T14:35:19.863Z,77.90
2023-04-26T14:37:48.745Z,78.41
2023-04-26T14:40:17.561Z,78.71
2023-04-26T14:42:46.480Z,78.90
2023-04-26T14:45:15.526Z,78.72
2023-04-26T14:47:44.464Z,78.80
2023-04-26T14:50:14.311Z,78.28
2023-04-26T14:52:42.872Z,77.07
2023-04-26T14:55:12.260Z,76.83
2023-04-26T14:57:41.337Z,76.00
2023-04-26T15:00:15.406Z,76.34
2023-04-26T15:02:44.890Z,76.11
2023-04-26T15:05:14.399Z,76.09
2023-04-26T15:07:43.200Z,76.21
2023-04-26T15:10:12.146Z,76.14
2023-04-26T15:12:40.947Z,76.60
2023-04-26T15:15:10.133Z,76.89
2023-04-26T15:17:39.079Z,76.39
2023-04-26T15:20:09.587Z,75.37
2023-04-26T15:22:39.053Z,74.18
2023-04-26T15:25:09.140Z,74.04
2023-04-26T15:27:38.253Z,73.77
2023-04-26T15:30:09.174Z,73.96
2023-04-26T15:32:38.467Z,73.85
2023-04-26T15:38:19.075Z,74.71
2023-04-26T15:40:51.273Z,75.34
2023-04-26T15:43:20.620Z,75.34
2023-04-26T15:45:50.085Z,76.02
2023-04-26T15:48:18.930Z,77.11
2023-04-26T15:50:47.752Z,78.04
2023-04-26T15:53:16.932Z,78.64
2023-04-26T15:55:46.705Z,79.36
2023-04-26T15:58:15.346Z,79.42
2023-04-26T16:00:44.204Z,78.90
2023-04-26T16:03:13.200Z,78.86
2023-04-26T16:05:42.122Z,78.97
2023-04-26T16:08:10.862Z,79.01
2023-04-26T16:10:39.987Z,78.66
2023-04-26T16:13:08.934Z,78.82
2023-04-26T16:15:38.212Z,78.90
2023-04-26T16:18:07.104Z,79.00
2023-04-26T16:20:35.805Z,79.46
2023-04-26T16:23:04.531Z,79.53
2023-04-26T16:25:33.121Z,79.57
2023-04-26T16:28:01.779Z,78.16
2023-04-26T16:30:30.509Z,76.23
2023-04-26T16:33:00.642Z,75.54
2023-04-26T16:35:29.402Z,75.10
2023-04-26T16:37:57.948Z,74.30
2023-04-26T16:40:27.466Z,74.41
2023-04-26T16:42:56.196Z,74.58
2023-04-26T16:45:25.515Z,74.67
2023-04-26T16:48:02.848Z,75.05
2023-04-26T16:50:32.526Z,75.75
2023-04-26T16:53:01.556Z,76.33
2023-04-26T16:55:30.484Z,76.24
2023-04-26T16:57:59.494Z,76.87
2023-04-26T17:00:29.646Z,77.14
2023-04-26T17:02:59.406Z,77.43
2023-04-26T17:05:29.992Z,77.50
2023-04-26T17:07:58.755Z,77.31
2023-04-26T17:10:27.816Z,77.51
2023-04-26T17:12:57.161Z,77.38
2023-04-26T17:15:27.096Z,77.46
2023-04-26T17:17:58.194Z,77.25
2023-04-26T17:20:27.617Z,77.19
2023-04-26T17:22:57.083Z,77.60
2023-04-26T17:25:29.286Z,78.08
2023-04-26T17:27:58.711Z,78.47
2023-04-26T17:30:28.085Z,78.76
2023-04-26T17:32:57.369Z,78.91
2023-04-26T17:35:27.155Z,78.94
2023-04-26T17:37:56.138Z,79.39
2023-04-26T17:40:24.932Z,79.44
2023-04-26T17:42:55.828Z,79.99
2023-04-26T17:45:25.075Z,80.41
2023-04-26T17:47:54.512Z,80.36
2023-04-26T17:50:26.698Z,80.97
2023-04-26T17:53:00.199Z,80.57
2023-04-26T17:55:32.350Z,80.75
2023-04-26T17:58:01.642Z,80.89
2023-04-26T18:00:30.854Z,80.77
2023-04-26T18:03:03.160Z,80.93
2023-04-26T18:05:35.907Z,80.93
2023-04-26T18:08:06.247Z,80.90
2023-04-26T18:10:37.455Z,80.76
2023-04-26T18:13:12.315Z,80.44
2023-04-26T18:15:42.175Z,79.45
2023-04-26T18:18:11.424Z,79.69
2023-04-26T18:20:41.194Z,79.77
2023-04-26T18:23:10.417Z,79.64
2023-04-26T18:25:39.253Z,78.89
2023-04-26T18:28:14.345Z,79.19
2023-04-26T18:30:43.780Z,79.26
2023-04-26T18:33:14.139Z,79.29
2023-04-26T18:35:43.564Z,79.45
2023-04-26T18:38:14.942Z,79.56
2023-04-26T18:40:50.908Z,79.71
2023-04-26T18:43:20.946Z,79.88
2023-04-26T18:45:50.038Z,80.02
2023-04-26T18:48:23.885Z,80.03
2023-04-26T18:52:05.576Z,80.03
2023-04-26T18:54:11.857Z,80.33
2023-04-26T18:56:46.651Z,80.18
2023-04-26T18:59:15.922Z,80.31
2023-04-26T19:01:45.357Z,79.99
2023-04-26T19:04:18.837Z,79.70
2023-04-26T19:06:48.203Z,79.91
2023-04-26T19:09:21.052Z,80.07
2023-04-26T19:11:51.394Z,79.70
2023-04-26T19:14:21.565Z,80.35
2023-04-26T19:16:53.926Z,80.40
2023-04-26T19:19:27.212Z,80.57
2023-04-26T19:22:00.148Z,80.76
2023-04-26T19:24:29.498Z,80.79
2023-04-26T19:26:58.470Z,80.68
2023-04-26T19:29:29.511Z,80.54
2023-04-26T19:32:00.347Z,80.19
2023-04-26T19:34:32.175Z,80.23
2023-04-26T19:37:02.020Z,80.36
2023-04-26T19:39:31.572Z,80.39
2023-04-26T19:42:04.644Z,80.36
2023-04-26T19:44:33.989Z,79.97
2023-04-26T19:47:04.584Z,80.36
2023-04-26T19:49:33.684Z,80.24
2023-04-26T19:52:02.609Z,80.58
2023-04-26T19:54:32.761Z,80.58
2023-04-26T19:57:03.585Z,80.56
2023-04-26T19:59:32.254Z,80.62
2023-04-26T20:02:01.208Z,80.63
2023-04-26T20:04:30.142Z,80.77
2023-04-26T20:06:58.984Z,81.22
2023-04-26T20:09:27.713Z,81.27
2023-04-26T20:11:56.332Z,81.49
2023-04-26T20:14:26.223Z,81.32
2023-04-26T20:16:54.973Z,81.52
2023-04-26T20:19:23.821Z,81.52
2023-04-26T20:21:52.730Z,81.72
2023-04-26T20:24:29.222Z,81.63
2023-04-26T20:27:04.209Z,81.53
2023-04-26T20:29:33.664Z,81.57
2023-04-26T20:32:02.676Z,81.54
2023-04-26T20:34:31.487Z,81.75
2023-04-26T20:37:00.585Z,81.75
2023-04-26T20:39:30.158Z,81.43
2023-04-26T20:41:58.794Z,81.57
2023-04-26T20:44:27.612Z,82.11
2023-04-26T20:46:57.546Z,82.18
2023-04-26T20:49:29.155Z,82.26
2023-04-26T20:53:45.141Z,82.45
2023-04-26T20:56:14.253Z,82.88
2023-04-26T20:58:43.054Z,82.71
2023-04-26T21:01:12.260Z,83.19
2023-04-26T21:03:41.143Z,83.25
2023-04-26T21:06:10.570Z,83.73
2023-04-26T21:08:39.312Z,83.67
2023-04-26T21:11:07.883Z,83.66
2023-04-26T21:13:36.597Z,83.72
2023-04-26T21:16:05.881Z,84.22
2023-04-26T21:18:34.585Z,84.02
2023-04-26T21:21:03.262Z,84.02
2023-04-26T21:23:31.941Z,84.11
2023-04-26T21:26:00.579Z,83.68
2023-04-26T21:28:29.385Z,83.55
2023-04-26T21:31:08.023Z,83.40
2023-04-26T21:33:36.731Z,83.50
2023-04-26T21:36:06.556Z,83.52
2023-04-26T21:38:35.305Z,83.54
2023-04-26T21:41:04.291Z,84.07
2023-04-26T21:43:32.854Z,83.99
2023-04-26T21:46:01.474Z,83.90
2023-04-26T21:48:30.179Z,84.08
2023-04-26T21:50:58.795Z,83.93
2023-04-26T21:53:27.505Z,84.01
2023-04-26T21:55:56.430Z,83.84
2023-04-26T21:58:25.165Z,83.50
2023-04-26T22:00:53.904Z,83.51
2023-04-26T22:03:22.874Z,83.75
2023-04-26T22:05:52.082Z,84.06
2023-04-26T22:08:20.896Z,84.08
2023-04-26T22:10:49.451Z,83.75
2023-04-26T22:13:18.288Z,83.88
2023-04-26T22:15:46.973Z,84.31
2023-04-26T22:18:16.582Z,83.89
2023-04-26T22:20:45.813Z,83.95
2023-04-26T22:23:14.434Z,83.94
2023-04-26T22:25:43.116Z,83.90
2023-04-26T22:28:11.809Z,84.01
2023-04-26T22:30:40.529Z,84.22
2023-04-26T22:33:11.335Z,84.07
2023-04-26T22:35:40.330Z,84.07
2023-04-26T22:38:08.903Z,84.18
2023-04-26T22:40:37.647Z,83.97
2023-04-26T22:43:06.716Z,84.16
2023-04-26T22:45:35.249Z,84.17
2023-04-26T22:48:04.481Z,84.26
2023-04-26T22:50:33.248Z,84.14
2023-04-26T22:53:01.949Z,84.38
2023-04-26T22:55:31.172Z,84.41
2023-04-26T22:57:59.904Z,84.71
2023-04-26T23:00:28.702Z,84.91
2023-04-26T23:02:57.394Z,85.23
2023-04-26T23:05:26.140Z,85.04
2023-04-26T23:07:54.984Z,85.30
2023-04-26T23:10:23.671Z,85.66
2023-04-26T23:12:53.206Z,85.77
2023-04-26T23:15:22.323Z,85.75
2023-04-26T23:17:50.994Z,86.06
2023-04-26T23:20:19.681Z,85.97
2023-04-26T23:22:48.453Z,86.29
2023-04-26T23:25:18.656Z,86.53
2023-04-26T23:27:47.444Z,86.55
2023-04-26T23:30:16.447Z,86.60
2023-04-26T23:32:45.105Z,87.29
2023-04-26T23:35:13.902Z,87.37
2023-04-26T23:37:42.697Z,87.54
2023-04-26T23:40:11.878Z,87.37
2023-04-26T23:42:40.743Z,87.57
2023-04-26T23:45:10.775Z,87.78
2023-04-26T23:47:39.599Z,88.04
2023-04-26T23:50:09.107Z,88.67
2023-04-26T23:52:37.813Z,89.08
2023-04-26T23:55:08.263Z,89.16
2023-04-26T23:57:36.908Z,89.68
